Flight Track Log - Related Links

Times and Time Zones

All times are in EDT time to prevent confusion due to time zone crossing. See the N64664 flight status page for this flight to view local times or setup timezone preferences in your user account.

Time Position Orientation Groundspeed Altitude Reporting Facility
EDT Latitude Longitude Course Direction KTS MPH feet Rate Location/Type
Sat 09:34:00 PM 33.1167 -83.9167 180° South 109 125 8,500  Level Atlanta TRACON
Sat 09:35:00 PM 33.0833 -83.9167 180° South 109 125 8,500  Level Atlanta TRACON
Sat 09:36:00 PM 33.0500 -83.9167 180° South 111 128 8,500  Level Atlanta TRACON
Sat 09:36:54 PM 33.0167 -83.9333 203° Southwest 109 125 8,500  Level Atlanta TRACON
Sat 09:37:54 PM 32.9833 -83.9333 180° South 109 125 8,500  Level Atlanta TRACON
Sat 09:38:54 PM 32.9667 -83.9333 180° South 110 127 8,500  Level Atlanta TRACON
Sat 09:39:54 PM 32.9333 -83.9500 203° Southwest 108 124 8,500  Level Atlanta TRACON
Sat 09:40:54 PM 32.9000 -83.9500 180° South 114 131 8,500  Level Atlanta TRACON
Sat 09:41:54 PM 32.8667 -83.9500 180° South 111 128 8,500  Level Atlanta TRACON
Sat 09:42:54 PM 32.8500 -83.9667 220° Southwest 107 123 8,500  Level Atlanta TRACON
Sat 09:43:54 PM 32.8167 -83.9667 180° South 111 128 8,500  Level Atlanta TRACON
Sat 09:44:54 PM 32.7833 -83.9667 180° South 110 127 8,500  Level Atlanta TRACON
Sat 09:45:54 PM 32.7500 -83.9833 203° Southwest 108 124 8,500  Level Atlanta TRACON
Sat 09:46:54 PM 32.7167 -83.9833 180° South 109 125 8,500  Level Atlanta TRACON
Sat 09:47:54 PM 32.7000 -83.9833 180° South 110 127 8,500  Level Atlanta TRACON
Sat 09:48:54 PM 32.6667 -84.0000 203° Southwest 112 129 8,500  Level Atlanta TRACON
Sat 09:49:54 PM 32.6333 -84.0000 180° South 109 125 8,500  Level Atlanta TRACON
Sat 09:50:54 PM 32.6000 -84.0000 180° South 110 127 8,500  Level Atlanta TRACON
Sat 09:51:54 PM 32.5667 -84.0167 203° Southwest 108 124 8,500  Level Atlanta TRACON
Sat 09:52:54 PM 32.5500 -84.0167 180° South 109 125 8,500  Level Atlanta TRACON
Sat 09:53:54 PM 32.5167 -84.0167 180° South 106 122 8,500  Level Atlanta TRACON
Sat 09:54:54 PM 32.4833 -84.0167 180° South 107 123 8,500  Level Atlanta TRACON
Sat 09:55:54 PM 32.4500 -84.0333 203° Southwest 105 121 8,500  Level Atlanta TRACON
Sat 09:56:54 PM 32.4333 -84.0333 180° South 105 121 8,500  Level Atlanta TRACON
Sat 09:57:54 PM 32.4000 -84.0333 180° South 104 120 8,500  Level Atlanta TRACON
Sat 09:58:54 PM 32.3667 -84.0500 203° Southwest 110 127 8,500  Level Atlanta TRACON
Sat 09:59:35 PM 32.3492 -84.0508 182° South 117 135 8,500  Level Jacksonville Center
Sat 10:00:35 PM 32.3219 -84.0578 192° South 112 129 8,500  Level Jacksonville Center
Sat 10:01:35 PM 32.2906 -84.0600 183° South 112 129 8,500  Level Jacksonville Center
Sat 10:02:35 PM 32.2633 -84.0669 192° South 107 123 8,500  Level Jacksonville Center
Sat 10:03:35 PM 32.2342 -84.0714 187° South 112 129 8,500  Level Jacksonville Center
Sat 10:04:35 PM 32.2047 -84.0761 188° South 112 129 8,500  Level Jacksonville Center
Sat 10:05:35 PM 32.1736 -84.0806 187° South 106 122 8,500  Level Jacksonville Center
Sat 10:06:35 PM 32.1442 -84.0850 187° South 106 122 8,500  Level Jacksonville Center
Sat 10:07:35 PM 32.1169 -84.0894 188° South 106 122 8,500  Level Jacksonville Center
Sat 10:08:35 PM 32.0900 -84.0942 188° South 106 122 8,500 -200 Level Jacksonville Center
Sat 10:09:35 PM 32.0564 -84.0986 186° South 106 122 8,100 -450 Descending Jacksonville Center
Sat 10:10:35 PM 32.0272 -84.1056 191° South 106 122 7,600 -500 Descending Jacksonville Center
Sat 10:11:35 PM 32.0000 -84.1100 188° South 106 122 7,100 -450 Descending Jacksonville Center
Sat 10:12:35 PM 31.9706 -84.1169 191° South 106 122 6,700 -400 Descending Jacksonville Center
Sat 10:13:35 PM 31.9433 -84.1217 188° South 106 122 6,300 -400 Descending Jacksonville Center
Sat 10:14:35 PM 31.9183 -84.1311 198° South 106 122 5,900 -450 Descending Jacksonville Center
Sat 10:15:35 PM 31.8889 -84.1381 191° South 106 122 5,400 -500 Descending Jacksonville Center

Login

Don't have an account? Register now (free) for customized features, flight alerts, and more!